createdAt,value
2023-03-19T00:00:29.049Z,93948.63
2023-03-19T00:02:56.308Z,93941.72
2023-03-19T00:05:23.188Z,93942.06
2023-03-19T00:07:49.894Z,93928.41
2023-03-19T00:10:16.634Z,93935.13
2023-03-19T00:12:43.284Z,93941.41
2023-03-19T00:15:14.317Z,93943.88
2023-03-19T00:17:43.082Z,93945.56
2023-03-19T00:20:12.512Z,93946.75
2023-03-19T00:22:40.221Z,93931.47
2023-03-19T00:25:08.507Z,93943.28
2023-03-19T00:27:36.647Z,93941.31
2023-03-19T00:30:05.254Z,93938.19
2023-03-19T00:32:33.596Z,93949.22
2023-03-19T00:35:00.431Z,93950.78
2023-03-19T00:37:27.566Z,93940.06
2023-03-19T00:39:55.640Z,93951.78
2023-03-19T00:42:22.407Z,93954.13
2023-03-19T00:44:49.072Z,93945.66
2023-03-19T00:47:15.829Z,93954.13
2023-03-19T00:49:42.471Z,93955.25
2023-03-19T00:52:09.245Z,93934.59
2023-03-19T00:54:36.216Z,93950.13
2023-03-19T00:57:02.919Z,93948.22
2023-03-19T00:59:30.248Z,93936.94
2023-03-19T01:01:57.046Z,93947.00
2023-03-19T01:04:23.855Z,93949.22
2023-03-19T01:06:51.092Z,93950.78
2023-03-19T01:09:17.937Z,93939.38
2023-03-19T01:11:44.756Z,93949.22
2023-03-19T01:14:11.756Z,93953.91
2023-03-19T01:16:38.705Z,93942.75
2023-03-19T01:19:06.169Z,93943.19
2023-03-19T01:21:34.104Z,93956.03
2023-03-19T01:24:01.026Z,93937.41
2023-03-19T01:26:28.995Z,93944.97
2023-03-19T01:29:03.694Z,93941.75
2023-03-19T01:31:30.505Z,93942.50
2023-03-19T01:34:21.096Z,93945.66
2023-03-19T01:36:52.700Z,93951.25
2023-03-19T01:39:27.717Z,93944.97
2023-03-19T01:41:55.221Z,93952.81
2023-03-19T01:44:49.326Z,93957.50
2023-03-19T01:47:43.309Z,93957.63
2023-03-19T01:50:24.320Z,93950.72
2023-03-19T01:53:01.224Z,93956.50
2023-03-19T01:55:46.864Z,93954.94
2023-03-19T01:58:28.298Z,93959.19
2023-03-19T02:01:14.521Z,93951.81
2023-03-19T02:03:46.737Z,93957.97
2023-03-19T02:06:21.019Z,93957.84
2023-03-19T02:08:49.559Z,93958.63
2023-03-19T02:11:17.047Z,93954.78
2023-03-19T02:13:43.808Z,93950.56
2023-03-19T02:16:11.014Z,93961.06
2023-03-19T02:18:39.024Z,93961.97
2023-03-19T02:21:08.452Z,93963.53
2023-03-19T02:24:07.939Z,93968.09
2023-03-19T02:26:47.845Z,93971.13
2023-03-19T02:29:14.705Z,93969.75
2023-03-19T02:31:41.666Z,93974.66
2023-03-19T02:34:21.394Z,93981.81
2023-03-19T02:36:52.268Z,93979.13
2023-03-19T02:39:26.305Z,93980.69
2023-03-19T02:41:54.679Z,93987.84
2023-03-19T02:44:22.410Z,93977.97
2023-03-19T02:46:51.790Z,93979.78
2023-03-19T02:49:19.026Z,93971.75
2023-03-19T02:51:45.794Z,93975.22
2023-03-19T02:54:12.569Z,93986.47
2023-03-19T02:56:39.277Z,93976.97
2023-03-19T02:59:06.684Z,93984.44
2023-03-19T03:01:33.641Z,93990.38
2023-03-19T03:04:00.322Z,93991.63
2023-03-19T03:06:27.022Z,93997.19
2023-03-19T03:08:53.713Z,93996.59
2023-03-19T03:11:20.431Z,93997.59
2023-03-19T03:13:47.162Z,94000.63
2023-03-19T03:16:13.868Z,93998.59
2023-03-19T03:18:42.476Z,94012.22
2023-03-19T03:21:10.254Z,94015.56
2023-03-19T03:23:36.937Z,94012.31
2023-03-19T03:26:03.677Z,94015.13
2023-03-19T03:28:30.355Z,94015.91
2023-03-19T03:31:01.187Z,94024.50
2023-03-19T03:33:28.862Z,94022.50
2023-03-19T03:35:56.022Z,94023.00
2023-03-19T03:38:23.634Z,94018.31
2023-03-19T03:40:52.703Z,94027.19
2023-03-19T03:43:21.600Z,94038.22
2023-03-19T03:45:49.227Z,94032.63
2023-03-19T03:48:17.792Z,94039.41
2023-03-19T03:50:44.548Z,94043.22
2023-03-19T03:53:16.101Z,94039.75
2023-03-19T03:55:44.205Z,94043.84
2023-03-19T03:58:13.187Z,94041.81
2023-03-19T04:00:40.563Z,94048.09
2023-03-19T04:03:07.317Z,94043.72
2023-03-19T04:05:34.101Z,94041.97
2023-03-19T04:08:01.349Z,94052.81
2023-03-19T04:10:28.166Z,94044.31
2023-03-19T04:12:54.894Z,94044.97
2023-03-19T04:15:22.795Z,94051.28
2023-03-19T04:17:51.845Z,94051.75
2023-03-19T04:20:19.045Z,94049.84
2023-03-19T04:22:46.725Z,94057.88
2023-03-19T04:25:13.647Z,94057.88
2023-03-19T04:27:40.794Z,94062.91
2023-03-19T04:30:09.990Z,94057.75
2023-03-19T04:32:37.280Z,94064.22
2023-03-19T04:35:04.916Z,94068.34
2023-03-19T04:37:31.658Z,94073.88
2023-03-19T04:39:59.604Z,94069.97
2023-03-19T04:42:26.569Z,94077.38
2023-03-19T04:45:04.700Z,94075.44
2023-03-19T04:47:31.938Z,94082.44
2023-03-19T04:50:00.966Z,94088.97
2023-03-19T04:52:29.318Z,94074.84
2023-03-19T04:54:56.148Z,94086.00
2023-03-19T04:57:23.286Z,94087.31
2023-03-19T04:59:52.426Z,94093.31
2023-03-19T05:02:22.047Z,94090.50
2023-03-19T05:04:49.935Z,94088.13
2023-03-19T05:07:16.978Z,94090.66
2023-03-19T05:09:46.271Z,94113.50
2023-03-19T05:12:14.250Z,94109.25
2023-03-19T05:14:46.010Z,94117.28
2023-03-19T05:17:19.423Z,94114.59
2023-03-19T05:19:59.003Z,94121.19
2023-03-19T05:22:26.355Z,94130.44
2023-03-19T05:24:56.232Z,94128.88
2023-03-19T05:27:23.505Z,94129.81
2023-03-19T05:30:06.677Z,94133.13
2023-03-19T05:32:53.173Z,94131.22
2023-03-19T05:35:30.676Z,94126.81
2023-03-19T05:37:58.405Z,94127.28
2023-03-19T05:40:25.231Z,94127.47
2023-03-19T05:42:52.936Z,94131.38
2023-03-19T05:45:22.993Z,94131.06
2023-03-19T05:47:53.794Z,94118.31
2023-03-19T05:50:21.984Z,94124.59
2023-03-19T05:53:11.841Z,94130.78
2023-03-19T05:55:43.165Z,94132.34
2023-03-19T05:58:11.266Z,94136.13
2023-03-19T06:00:38.469Z,94137.19
2023-03-19T06:03:05.633Z,94143.34
2023-03-19T06:05:41.951Z,94145.53
2023-03-19T06:08:30.782Z,94149.16
2023-03-19T06:11:20.439Z,94154.97
2023-03-19T06:13:54.258Z,94154.69
2023-03-19T06:16:21.397Z,94166.66
2023-03-19T06:18:52.523Z,94164.28
2023-03-19T06:21:19.682Z,94171.63
2023-03-19T06:23:46.430Z,94172.59
2023-03-19T06:26:17.434Z,94171.78
2023-03-19T06:28:52.564Z,94176.34
2023-03-19T06:31:20.007Z,94176.69
2023-03-19T06:33:52.970Z,94170.72
2023-03-19T06:36:21.129Z,94175.59
2023-03-19T06:38:48.498Z,94177.31
2023-03-19T06:41:15.164Z,94178.09
2023-03-19T06:43:42.333Z,94179.03
2023-03-19T06:46:11.470Z,94171.13
2023-03-19T06:48:38.659Z,94179.91
2023-03-19T06:51:05.994Z,94174.25
2023-03-19T06:53:32.920Z,94185.25
2023-03-19T06:55:59.551Z,94179.75
2023-03-19T06:58:27.014Z,94187.63
2023-03-19T07:00:53.697Z,94187.44
2023-03-19T07:03:20.657Z,94183.31
2023-03-19T07:05:50.299Z,94188.66
2023-03-19T07:08:16.996Z,94183.00
2023-03-19T07:10:43.785Z,94199.34
2023-03-19T07:13:10.580Z,94188.31
2023-03-19T07:15:37.270Z,94185.97
2023-03-19T07:18:04.086Z,94189.25
2023-03-19T07:20:30.985Z,94186.25
2023-03-19T07:22:57.712Z,94204.44
2023-03-19T07:25:24.388Z,94207.59
2023-03-19T07:27:51.257Z,94197.19
2023-03-19T07:30:18.052Z,94196.88
2023-03-19T07:32:44.683Z,94200.94
2023-03-19T07:35:11.667Z,94207.25
2023-03-19T07:37:38.298Z,94206.50
2023-03-19T07:40:05.585Z,94210.59
2023-03-19T07:42:32.202Z,94220.41
2023-03-19T07:44:58.974Z,94209.25
2023-03-19T07:47:29.469Z,94209.50
2023-03-19T07:49:57.316Z,94213.16
2023-03-19T07:52:25.215Z,94208.13
2023-03-19T07:54:52.413Z,94216.44
2023-03-19T07:57:19.540Z,94213.44
2023-03-19T07:59:46.537Z,94204.59
2023-03-19T08:02:13.592Z,94215.59
2023-03-19T08:04:41.360Z,94209.91
2023-03-19T08:07:11.045Z,94205.78
2023-03-19T08:09:37.712Z,94207.44
2023-03-19T08:12:05.462Z,94199.09
2023-03-19T08:14:33.090Z,94215.53
2023-03-19T08:17:00.401Z,94219.00
2023-03-19T08:19:27.119Z,94209.59
2023-03-19T08:21:53.802Z,94217.75
2023-03-19T08:24:20.788Z,94211.28
2023-03-19T08:26:47.445Z,94212.38
2023-03-19T08:29:14.111Z,94216.63
2023-03-19T08:31:40.809Z,94220.06
2023-03-19T08:34:10.317Z,94232.34
2023-03-19T08:36:37.005Z,94219.00
2023-03-19T08:39:04.523Z,94220.72
2023-03-19T08:41:31.593Z,94199.66
2023-03-19T08:43:58.267Z,94216.47
2023-03-19T08:46:26.950Z,94223.84
2023-03-19T08:48:53.782Z,94222.91
2023-03-19T08:51:20.938Z,94222.69
2023-03-19T08:53:47.570Z,94221.38
2023-03-19T08:56:14.214Z,94223.88
2023-03-19T08:58:42.177Z,94225.50
2023-03-19T09:01:11.941Z,94220.28
2023-03-19T09:03:39.480Z,94227.47
2023-03-19T09:06:08.821Z,94231.25
2023-03-19T09:08:37.259Z,94216.28
2023-03-19T09:11:04.741Z,94233.84
2023-03-19T09:13:31.726Z,94228.94
2023-03-19T09:15:58.444Z,94230.94
2023-03-19T09:18:25.619Z,94239.22
2023-03-19T09:20:54.074Z,94232.19
2023-03-19T09:23:21.378Z,94237.00
2023-03-19T09:25:48.819Z,94239.94
2023-03-19T09:28:16.037Z,94237.91
2023-03-19T09:30:43.417Z,94227.50
2023-03-19T09:33:10.162Z,94230.59
2023-03-19T09:35:39.722Z,94228.28
2023-03-19T09:38:06.967Z,94240.75
2023-03-19T09:40:46.767Z,94240.25
2023-03-19T09:43:33.044Z,94239.88
2023-03-19T09:46:03.205Z,94237.53
2023-03-19T09:48:40.883Z,94231.03
2023-03-19T09:51:16.046Z,94231.91
2023-03-19T09:54:00.658Z,94218.25
2023-03-19T09:56:28.040Z,94226.16
2023-03-19T09:58:54.957Z,94216.44
2023-03-19T10:01:26.649Z,94224.00
2023-03-19T10:04:13.012Z,94222.91
2023-03-19T10:06:43.891Z,94219.19
2023-03-19T10:09:41.172Z,94215.53
2023-03-19T10:12:26.627Z,94223.22
2023-03-19T10:15:17.392Z,94219.31
2023-03-19T10:18:02.730Z,94219.84
2023-03-19T10:20:43.274Z,94217.13
2023-03-19T10:23:15.751Z,94210.91
2023-03-19T10:25:44.930Z,94188.66
2023-03-19T10:28:17.054Z,94206.22
2023-03-19T10:30:45.848Z,94210.72
2023-03-19T10:33:31.961Z,94209.50
2023-03-19T10:36:05.403Z,94206.19
2023-03-19T10:38:33.611Z,94202.41
2023-03-19T10:41:05.025Z,94202.53
2023-03-19T10:43:32.151Z,94196.81
2023-03-19T10:45:58.834Z,94195.13
2023-03-19T10:48:28.362Z,94198.75
2023-03-19T10:51:01.238Z,94195.91
2023-03-19T10:53:33.162Z,94199.94
2023-03-19T10:56:04.973Z,94188.16
2023-03-19T10:58:34.894Z,94183.28
2023-03-19T11:01:09.656Z,94188.69
2023-03-19T11:03:39.073Z,94184.00
2023-03-19T11:06:17.471Z,94181.38
2023-03-19T11:08:52.460Z,94181.09
2023-03-19T11:11:43.963Z,94167.84
2023-03-19T11:14:17.190Z,94167.63
2023-03-19T11:16:58.591Z,94163.16
2023-03-19T11:19:28.301Z,94159.94
2023-03-19T11:22:18.959Z,94171.00
2023-03-19T11:25:01.048Z,94175.13
2023-03-19T11:27:36.157Z,94171.19
2023-03-19T11:30:12.580Z,94167.56
2023-03-19T11:33:15.857Z,94152.09
2023-03-19T11:35:55.696Z,94150.34
2023-03-19T11:38:33.692Z,94155.81
2023-03-19T11:41:37.966Z,94151.91
2023-03-19T11:44:24.721Z,94154.03
2023-03-19T11:46:59.881Z,94148.19
2023-03-19T11:49:41.966Z,94148.47
2023-03-19T11:52:17.004Z,94155.66
2023-03-19T11:54:49.682Z,94155.06
2023-03-19T11:58:02.830Z,94149.19
2023-03-19T12:00:35.499Z,94140.50
2023-03-19T12:03:08.293Z,94143.69
2023-03-19T12:05:38.068Z,94139.72
2023-03-19T12:08:07.819Z,94128.13
2023-03-19T12:10:43.851Z,94133.97
2023-03-19T12:13:27.392Z,94126.34
2023-03-19T12:16:03.244Z,94131.13
2023-03-19T12:18:55.612Z,94127.59
2023-03-19T12:21:34.352Z,94130.56
2023-03-19T12:24:19.688Z,94127.63
2023-03-19T12:26:52.780Z,94121.66
2023-03-19T12:29:46.191Z,94127.25
2023-03-19T12:32:25.536Z,94120.09
2023-03-19T12:35:01.177Z,94123.88
2023-03-19T12:37:53.619Z,94118.25
2023-03-19T12:40:20.206Z,94116.19
2023-03-19T12:42:46.867Z,94119.03
2023-03-19T12:45:39.761Z,94119.69
2023-03-19T12:48:12.355Z,94112.13
2023-03-19T12:50:43.411Z,94103.16
2023-03-19T12:53:26.575Z,94105.44
2023-03-19T12:55:58.482Z,94108.41
2023-03-19T12:58:50.892Z,94112.81
2023-03-19T13:01:22.298Z,94106.06
2023-03-19T13:04:03.398Z,94107.03
2023-03-19T13:06:37.050Z,94099.31
2023-03-19T13:09:50.678Z,94104.09
2023-03-19T13:12:27.735Z,94091.69
2023-03-19T13:15:16.910Z,94099.06
2023-03-19T13:17:58.429Z,94090.31
2023-03-19T13:20:49.587Z,94091.81
2023-03-19T13:23:25.416Z,94087.72
2023-03-19T13:25:54.944Z,94080.88
2023-03-19T13:28:33.799Z,94086.53
2023-03-19T13:31:06.740Z,94072.88
2023-03-19T13:33:35.255Z,94083.00
2023-03-19T13:36:05.436Z,94075.81
2023-03-19T13:38:37.480Z,94075.50
2023-03-19T13:41:04.038Z,94072.53
2023-03-19T13:43:30.602Z,94075.47
2023-03-19T13:46:12.592Z,94067.69
2023-03-19T13:48:49.754Z,94074.25
2023-03-19T13:51:19.259Z,94070.56
2023-03-19T13:54:13.545Z,94063.84
2023-03-19T13:57:00.965Z,94072.69
2023-03-19T13:59:30.098Z,94069.28
2023-03-19T14:01:57.830Z,94067.56
2023-03-19T14:04:33.238Z,94082.47
2023-03-19T14:07:15.163Z,94081.56
2023-03-19T14:09:43.826Z,94084.88
2023-03-19T14:12:20.333Z,94083.66
2023-03-19T14:14:55.996Z,94079.97
2023-03-19T14:17:27.517Z,94087.38
2023-03-19T14:19:54.922Z,94075.19
2023-03-19T14:22:32.626Z,94078.31
2023-03-19T14:25:18.061Z,94080.34
2023-03-19T14:27:50.341Z,94075.91
2023-03-19T14:30:39.025Z,94082.41
2023-03-19T14:33:13.849Z,94083.81
2023-03-19T14:35:45.267Z,94085.03
2023-03-19T14:38:23.196Z,94092.19
2023-03-19T14:40:53.053Z,94091.84
2023-03-19T14:43:56.557Z,94096.25
2023-03-19T14:46:42.416Z,94089.28
2023-03-19T14:49:27.987Z,94081.84
2023-03-19T14:52:03.489Z,94097.38
2023-03-19T14:54:42.791Z,94083.50
2023-03-19T14:57:27.070Z,94082.06
2023-03-19T14:59:55.129Z,94073.91
2023-03-19T15:02:35.078Z,94061.78
2023-03-19T15:05:08.860Z,94064.19
2023-03-19T15:07:43.451Z,94063.03
2023-03-19T15:10:22.413Z,94058.25
2023-03-19T15:13:24.724Z,94060.72
2023-03-19T15:16:02.281Z,94059.84
2023-03-19T15:18:29.464Z,94063.75
2023-03-19T15:20:57.142Z,94062.72
2023-03-19T15:23:28.878Z,94068.97
2023-03-19T15:25:58.417Z,94075.47
2023-03-19T15:28:28.059Z,94073.13
2023-03-19T15:31:26.815Z,94087.75
2023-03-19T15:33:52.953Z,94086.38
2023-03-19T15:36:31.684Z,94096.94
2023-03-19T15:39:10.983Z,94101.31
2023-03-19T15:41:44.114Z,94097.81
2023-03-19T15:44:16.814Z,94093.78
2023-03-19T15:46:45.572Z,94095.13
2023-03-19T15:49:20.323Z,94105.88
2023-03-19T15:51:51.631Z,94115.88
2023-03-19T15:54:19.141Z,94116.38
2023-03-19T15:56:47.752Z,94113.69
2023-03-19T15:59:14.552Z,94127.44
2023-03-19T16:01:41.573Z,94120.50
2023-03-19T16:04:16.312Z,94128.66
2023-03-19T16:06:43.025Z,94124.63
2023-03-19T16:09:21.867Z,94134.13
2023-03-19T16:11:49.158Z,94114.47
2023-03-19T16:14:23.126Z,94139.41
2023-03-19T16:16:50.934Z,94143.09
2023-03-19T16:19:34.921Z,94142.44
2023-03-19T16:22:04.163Z,94145.78
2023-03-19T16:24:34.345Z,94146.88
2023-03-19T16:27:05.809Z,94152.72
2023-03-19T16:29:39.858Z,94153.16
2023-03-19T16:32:14.386Z,94154.84
2023-03-19T16:34:46.692Z,94136.59
2023-03-19T16:37:44.247Z,94152.94
2023-03-19T16:40:13.765Z,94152.25
2023-03-19T16:42:49.630Z,94154.38
2023-03-19T16:45:16.305Z,94164.72
2023-03-19T16:47:44.308Z,94153.94
2023-03-19T16:50:11.366Z,94152.31
2023-03-19T16:52:39.515Z,94164.22
2023-03-19T16:55:18.815Z,94164.28
2023-03-19T16:57:47.517Z,94163.78
2023-03-19T17:00:14.931Z,94163.66
2023-03-19T17:02:41.620Z,94160.84
2023-03-19T17:05:15.450Z,94170.88
2023-03-19T17:07:42.693Z,94169.44
2023-03-19T17:10:20.942Z,94178.16
2023-03-19T17:12:50.368Z,94185.16
2023-03-19T17:15:31.950Z,94182.84
2023-03-19T17:18:00.628Z,94189.09
2023-03-19T17:20:34.210Z,94185.28
2023-03-19T17:23:01.033Z,94182.16
2023-03-19T17:25:27.752Z,94181.13
2023-03-19T17:27:54.374Z,94191.06
2023-03-19T17:30:21.097Z,94201.94
2023-03-19T17:32:49.850Z,94203.34
2023-03-19T17:35:19.441Z,94197.09
2023-03-19T17:37:47.474Z,94198.50
2023-03-19T17:40:19.052Z,94205.31
2023-03-19T17:42:46.057Z,94205.97
2023-03-19T17:45:14.638Z,94203.41
2023-03-19T17:47:44.125Z,94192.88
2023-03-19T17:50:31.574Z,94204.19
2023-03-19T17:52:58.935Z,94200.59
2023-03-19T17:55:28.725Z,94211.91
2023-03-19T17:57:56.057Z,94207.84
2023-03-19T18:00:24.809Z,94220.91
2023-03-19T18:02:54.107Z,94208.38
2023-03-19T18:05:25.745Z,94207.47
2023-03-19T18:07:56.648Z,94217.84
2023-03-19T18:10:29.933Z,94217.13
2023-03-19T18:13:00.012Z,94219.50
2023-03-19T18:15:29.764Z,94215.78
2023-03-19T18:17:58.828Z,94237.50
2023-03-19T18:20:29.819Z,94235.00
2023-03-19T18:22:56.532Z,94230.78
2023-03-19T18:25:26.237Z,94238.97
2023-03-19T18:27:53.710Z,94251.75
2023-03-19T18:30:23.097Z,94241.75
2023-03-19T18:32:54.896Z,94217.41
2023-03-19T18:35:28.316Z,94246.66
2023-03-19T18:37:56.214Z,94238.47
2023-03-19T18:40:25.627Z,94253.00
2023-03-19T18:42:52.950Z,94254.88
2023-03-19T18:45:20.321Z,94254.72
2023-03-19T18:47:48.900Z,94256.31
2023-03-19T18:50:25.661Z,94255.84
2023-03-19T18:52:53.685Z,94259.28
2023-03-19T18:55:23.288Z,94256.31
2023-03-19T18:57:54.300Z,94264.97
2023-03-19T19:00:25.018Z,94272.34
2023-03-19T19:02:53.184Z,94268.91
2023-03-19T19:05:23.747Z,94271.88
2023-03-19T19:07:51.294Z,94272.16
2023-03-19T19:10:18.333Z,94279.88
2023-03-19T19:12:47.702Z,94276.09
2023-03-19T19:15:17.379Z,94276.09
2023-03-19T19:17:44.592Z,94275.94
2023-03-19T19:20:23.227Z,94278.97
2023-03-19T19:22:51.636Z,94275.19
2023-03-19T19:25:20.815Z,94280.22
2023-03-19T19:27:56.990Z,94281.66
2023-03-19T19:30:24.158Z,94280.59
2023-03-19T19:32:50.961Z,94288.31
2023-03-19T19:35:22.975Z,94292.56
2023-03-19T19:37:50.443Z,94293.78
2023-03-19T19:40:20.980Z,94295.50
2023-03-19T19:42:54.256Z,94302.94
2023-03-19T19:45:41.910Z,94310.66
2023-03-19T19:48:17.687Z,94303.75
2023-03-19T19:50:46.437Z,94309.72
2023-03-19T19:53:13.928Z,94313.97
2023-03-19T19:55:41.546Z,94312.66
2023-03-19T19:58:17.753Z,94320.06
2023-03-19T20:00:53.303Z,94324.31
2023-03-19T20:03:29.259Z,94328.72
2023-03-19T20:05:57.274Z,94339.75
2023-03-19T20:08:27.023Z,94338.34
2023-03-19T20:10:54.275Z,94340.72
2023-03-19T20:13:27.700Z,94349.53
2023-03-19T20:15:57.160Z,94355.66
2023-03-19T20:18:25.155Z,94352.97
2023-03-19T20:20:52.960Z,94355.22
2023-03-19T20:23:20.821Z,94358.94
2023-03-19T20:25:47.864Z,94360.66
2023-03-19T20:28:27.776Z,94366.66
2023-03-19T20:30:55.200Z,94362.25
2023-03-19T20:33:22.598Z,94364.59
2023-03-19T20:35:49.612Z,94357.69
2023-03-19T20:38:16.718Z,94363.84
2023-03-19T20:40:53.330Z,94355.69
2023-03-19T20:43:29.651Z,94358.34
2023-03-19T20:46:02.930Z,94362.91
2023-03-19T20:48:31.080Z,94363.56
2023-03-19T20:50:59.647Z,94367.94
2023-03-19T20:53:26.340Z,94361.81
2023-03-19T20:55:53.847Z,94364.19
2023-03-19T20:58:33.602Z,94369.34
2023-03-19T21:01:01.008Z,94364.00
2023-03-19T21:03:30.729Z,94371.38
2023-03-19T21:06:10.474Z,94375.00
2023-03-19T21:08:42.404Z,94379.09
2023-03-19T21:11:15.111Z,94381.63
2023-03-19T21:13:42.527Z,94392.31
2023-03-19T21:16:17.515Z,94380.34
2023-03-19T21:18:44.894Z,94384.94
2023-03-19T21:21:13.644Z,94377.69
2023-03-19T21:23:42.955Z,94376.13
2023-03-19T21:26:18.014Z,94386.81
2023-03-19T21:28:46.644Z,94379.91
2023-03-19T21:31:20.432Z,94378.19
2023-03-19T21:33:48.794Z,94377.06
2023-03-19T21:36:16.799Z,94356.78
2023-03-19T21:38:44.169Z,94359.44
2023-03-19T21:41:26.431Z,94363.06
2023-03-19T21:43:57.846Z,94359.28
2023-03-19T21:46:27.573Z,94362.13
2023-03-19T21:48:56.089Z,94364.78
2023-03-19T21:51:25.057Z,94367.78
2023-03-19T21:53:52.433Z,94363.06
2023-03-19T21:56:33.334Z,94372.81
2023-03-19T21:59:03.259Z,94374.22
2023-03-19T22:01:30.104Z,94373.28
2023-03-19T22:03:58.009Z,94382.56
2023-03-19T22:06:25.249Z,94377.53
2023-03-19T22:08:54.117Z,94377.06
2023-03-19T22:11:28.399Z,94394.38
2023-03-19T22:14:07.928Z,94394.19
2023-03-19T22:16:34.828Z,94384.78
2023-03-19T22:19:01.961Z,94385.06
2023-03-19T22:21:30.629Z,94387.25
2023-03-19T22:23:57.319Z,94390.25
2023-03-19T22:26:36.432Z,94388.03
2023-03-19T22:29:06.582Z,94392.75
2023-03-19T22:31:34.767Z,94392.75
2023-03-19T22:34:02.238Z,94388.06
2023-03-19T22:36:28.913Z,94391.50
2023-03-19T22:38:55.699Z,94382.41
2023-03-19T22:41:27.726Z,94384.41
2023-03-19T22:43:55.237Z,94389.78
2023-03-19T22:46:22.346Z,94393.69
2023-03-19T22:48:52.518Z,94395.25
2023-03-19T22:51:25.591Z,94380.31
2023-03-19T22:53:52.339Z,94388.19
2023-03-19T22:56:22.073Z,94397.16
2023-03-19T22:58:48.916Z,94384.56
2023-03-19T23:01:22.471Z,94389.94
2023-03-19T23:03:50.586Z,94391.97
2023-03-19T23:06:30.335Z,94380.03
2023-03-19T23:08:58.042Z,94376.56
2023-03-19T23:11:24.813Z,94380.16
2023-03-19T23:13:51.913Z,94384.41
2023-03-19T23:16:24.179Z,94384.25
2023-03-19T23:18:51.499Z,94387.09
2023-03-19T23:21:19.017Z,94391.97
2023-03-19T23:23:45.956Z,94393.53
2023-03-19T23:26:29.990Z,94398.44
2023-03-19T23:29:06.691Z,94400.16
2023-03-19T23:31:34.419Z,94403.44
2023-03-19T23:34:01.614Z,94405.94
2023-03-19T23:36:28.356Z,94405.47
2023-03-19T23:38:54.989Z,94404.06
2023-03-19T23:41:26.633Z,94398.09
2023-03-19T23:43:54.860Z,94389.28
2023-03-19T23:46:22.105Z,94394.31
2023-03-19T23:48:48.860Z,94396.81
2023-03-19T23:51:16.450Z,94400.88
2023-03-19T23:53:43.680Z,94407.19
2023-03-19T23:56:18.756Z,94407.81
2023-03-19T23:58:47.661Z,94399.00
